Flight Track Log - Related Links

Times and Time Zones

All times are in EDT time to prevent confusion due to time zone crossing. See the JBU279 flight status page for this flight to view local times or setup timezone preferences in your user account.

Time Position Orientation Groundspeed Altitude Reporting Facility
EDT Latitude Longitude Course Direction KTS MPH feet Rate Location/Type
Tue 10:29:37 AM 36.0760 -115.1550 138° Southeast 166 191 2,700  Level FlightAware ADS-B
Tue 10:30:07 AM 36.0770 -115.1840 272° West 177 204 4,000 2,400 Climbing FlightAware ADS-B
Tue 10:30:27 AM 36.0770 -115.2050 270° West 195 224 4,700 2,073 Climbing FlightAware ADS-B
Tue 10:31:02 AM 36.0720 -115.2460 261° West 239 275 5,900 2,280 Climbing FlightAware ADS-B
Tue 10:31:17 AM 36.0600 -115.2640 230° Southwest 256 295 6,600 2,600 Climbing FlightAware ADS-B
Tue 10:31:32 AM 36.0450 -115.2740 208° Southwest 270 311 7,200 3,000 Climbing FlightAware ADS-B
Tue 10:31:57 AM 36.0120 -115.2820 191° South 286 329 8,600 3,600 Climbing FlightAware ADS-B
Tue 10:32:12 AM 35.9940 -115.2870 193° South 283 326 9,600 3,382 Climbing FlightAware ADS-B
Tue 10:32:52 AM 35.9440 -115.3050 196° South 302 348 11,700 2,471 Climbing FlightAware ADS-B
Tue 10:33:37 AM 35.8750 -115.3140 186° South 350 403 13,100 2,188 Climbing FlightAware ADS-B
Tue 10:34:17 AM 35.8070 -115.3110 178° South 370 426 14,800 2,753 Climbing FlightAware ADS-B
Tue 10:35:02 AM 35.7300 -115.3010 174° South 373 429 17,000 2,753 Climbing FlightAware ADS-B
Tue 10:35:42 AM 35.6650 -115.3180 192° South 371 427 18,700 2,509 Climbing FlightAware ADS-B
Tue 10:35:57 AM 35.6440 -115.3400 220° Southwest 373 429 19,300 2,509 Climbing FlightAware ADS-B
Tue 10:36:37 AM 35.5970 -115.4040 228° Southwest 379 436 21,000 2,325 Climbing FlightAware ADS-B
Tue 10:37:17 AM 35.5500 -115.4670 227° Southwest 384 442 22,400 1,976 Climbing FlightAware ADS-B
Tue 10:38:02 AM 35.4960 -115.5390 227° Southwest 384 442 23,800 1,129 Climbing FlightAware ADS-B
Tue 10:38:42 AM 35.4490 -115.6010 227° Southwest 385 443 24,000 141 Climbing FlightAware ADS-B
Tue 10:39:27 AM 35.3920 -115.6780 228° Southwest 395 455 24,000  Level FlightAware ADS-B
Tue 10:40:07 AM 35.3440 -115.7420 227° Southwest 393 452 24,000  Level FlightAware ADS-B
Tue 10:40:52 AM 35.2890 -115.8150 227° Southwest 394 453 24,000  Level FlightAware ADS-B
Tue 10:41:32 AM 35.2390 -115.8820 228° Southwest 392 451 24,000  Level FlightAware ADS-B
Tue 10:42:17 AM 35.1860 -115.9510 227° Southwest 394 453 24,000  Level FlightAware ADS-B
Tue 10:42:47 AM 35.1450 -116.0050 227° Southwest 394 453 24,000  Level FlightAware ADS-B
Tue 10:43:32 AM 35.0970 -116.0690 227° Southwest 394 453 24,000  Level FlightAware ADS-B
Tue 10:44:17 AM 35.0360 -116.1490 227° Southwest 392 451 24,000  Level FlightAware ADS-B
Tue 10:44:52 AM 34.9920 -116.2070 227° Southwest 394 453 24,000  Level FlightAware ADS-B
Tue 10:45:47 AM 34.9220 -116.2990 227° Southwest 391 450 24,000  Level FlightAware ADS-B
Tue 10:46:27 AM 34.8740 -116.3610 227° Southwest 390 449 24,000  Level FlightAware ADS-B
Tue 10:47:17 AM 34.8170 -116.4350 227° Southwest 388 447 24,000  Level FlightAware ADS-B
Tue 10:48:07 AM 34.7650 -116.5030 227° Southwest 388 447 24,000  Level FlightAware ADS-B
Tue 10:48:47 AM 34.7240 -116.5580 228° Southwest 388 447 24,000  Level FlightAware ADS-B
Tue 10:49:27 AM 34.6820 -116.6120 227° Southwest 388 447 24,000  Level FlightAware ADS-B
Tue 10:50:07 AM 34.6400 -116.6660 227° Southwest 388 447 24,000  Level FlightAware ADS-B
Tue 10:50:47 AM 34.5990 -116.7200 227° Southwest 388 447 24,000 -2,580 Level FlightAware ADS-B
Tue 10:51:47 AM 34.4910 -116.8370 222° Southwest 357 411 19,700 -3,886 Descending FlightAware ADS-B
Tue 10:52:32 AM 34.4370 -116.9030 225° Southwest 357 411 17,200 -1,950 Descending FlightAware ADS-B
Tue 10:53:07 AM 34.3990 -116.9500 226° Southwest 357 411 17,100 -80 Descending FlightAware ADS-B
Tue 10:53:47 AM 34.3590 -116.9980 225° Southwest 357 411 17,100 -2,667 Level FlightAware ADS-B
Tue 10:54:37 AM 34.2940 -117.0760 225° Southwest 342 394 13,100 -2,800 Descending FlightAware ADS-B
Tue 10:55:17 AM 34.2510 -117.1270 224° Southwest 309 356 12,900 -218 Descending FlightAware ADS-B
Tue 10:55:32 AM 34.2330 -117.1400 211° Southwest 313 360 12,900 -873 Level FlightAware ADS-B
Tue 10:56:12 AM 34.1770 -117.1580 195° South 312 359 12,100 -1,553 Descending FlightAware ADS-B
Tue 10:56:57 AM 34.1140 -117.1780 195° South 307 353 10,700 -1,341 Descending FlightAware ADS-B
Tue 10:57:37 AM 34.0620 -117.1950 195° South 279 321 10,200 -923 Descending FlightAware ADS-B
Tue 10:58:02 AM 34.0350 -117.2040 195° South 276 318 9,700 -1,527 Descending FlightAware ADS-B
Tue 10:58:32 AM 33.9940 -117.2180 196° South 275 316 8,800 -1,600 Descending FlightAware ADS-B
Tue 10:59:02 AM 33.9570 -117.2310 196° South 268 308 8,100 -1,067 Descending FlightAware ADS-B
Tue 10:59:17 AM 33.9410 -117.2410 207° Southwest 267 307 8,000 -400 Descending FlightAware ADS-B
Tue 10:59:32 AM 33.9290 -117.2570 228° Southwest 272 313 7,900 -150 Descending FlightAware ADS-B
Tue 10:59:57 AM 33.9130 -117.2910 240° Southwest 270 311 7,900  Level FlightAware ADS-B
Tue 11:00:27 AM 33.8940 -117.3320 241° Southwest 270 311 7,900  Level FlightAware ADS-B
Tue 11:00:52 AM 33.8800 -117.3640 242° Southwest 278 320 7,900  Level FlightAware ADS-B
Tue 11:01:22 AM 33.8550 -117.4000 230° Southwest 275 316 7,900  Level FlightAware ADS-B
Tue 11:01:47 AM 33.8320 -117.4250 222° Southwest 281 323 7,900  Level FlightAware ADS-B
Tue 11:02:07 AM 33.8180 -117.4460 231° Southwest 274 315 7,900  Level FlightAware ADS-B
Tue 11:02:27 AM 33.8080 -117.4780 249° West 273 314 7,900  Level FlightAware ADS-B
Tue 11:02:52 AM 33.7990 -117.5150 254° West 278 320 7,900 -218 Level FlightAware ADS-B
Tue 11:03:22 AM 33.7880 -117.5570 253° West 264 304 7,700 -545 Descending FlightAware ADS-B
Tue 11:03:47 AM 33.7800 -117.5900 254° West 247 284 7,400 -600 Descending FlightAware ADS-B
Tue 11:04:02 AM 33.7750 -117.6100 253° West 236 272 7,300 -800 Descending FlightAware ADS-B
Tue 11:04:32 AM 33.7630 -117.6460 248° West 230 265 6,800 -1,091 Descending FlightAware ADS-B
Tue 11:04:57 AM 33.7530 -117.6770 249° West 227 261 6,300 -1,091 Descending FlightAware ADS-B
Tue 11:05:27 AM 33.7420 -117.7120 249° West 221 254 5,800 -1,000 Descending FlightAware ADS-B
Tue 11:05:57 AM 33.7310 -117.7470 249° West 218 251 5,300 -982 Descending FlightAware ADS-B
Tue 11:06:22 AM 33.7220 -117.7730 247° West 214 246 4,900 -1,091 Descending FlightAware ADS-B
Tue 11:06:52 AM 33.7110 -117.8060 248° West 217 250 4,300 -1,200 Descending FlightAware ADS-B
Tue 11:07:07 AM 33.7050 -117.8240 248° West 216 249 4,000 -600 Descending FlightAware ADS-B
Tue 11:07:32 AM 33.6950 -117.8510 246° West 219 252 3,900 -109 Descending FlightAware ADS-B
Tue 11:08:02 AM 33.6840 -117.8850 249° West 217 250 3,900 -218 Level FlightAware ADS-B
Tue 11:08:27 AM 33.6750 -117.9100 247° West 208 239 3,700 -750 Descending FlightAware ADS-B
Tue 11:08:42 AM 33.6710 -117.9280 255° West 208 239 3,400 -933 Descending FlightAware ADS-B
Tue 11:09:12 AM 33.6780 -117.9620 284° West 203 234 3,000 -545 Descending FlightAware ADS-B
Tue 11:09:37 AM 33.6840 -117.9870 286° West 206 237 2,900 -150 Descending FlightAware ADS-B
Tue 11:09:52 AM 33.6940 -118.0010 311° West 201 231 2,900  Level FlightAware ADS-B
Tue 11:10:07 AM 33.7030 -118.0130 312° West 191 220 2,900 -533 Level FlightAware ADS-B
Tue 11:10:37 AM 33.7220 -118.0360 315° West 184 212 2,500 -982 Descending FlightAware ADS-B
Tue 11:11:02 AM 33.7370 -118.0540 315° West 186 214 2,000 -1,091 Descending FlightAware ADS-B
Tue 11:11:32 AM 33.7550 -118.0750 316° Northwest 184 212 1,500 -933 Descending FlightAware ADS-B
Tue 11:11:47 AM 33.7640 -118.0860 315° West 173 199 1,300 -900 Descending FlightAware ADS-B
Tue 11:12:12 AM 33.7770 -118.1020 314° West 160 184 900 -873 Descending FlightAware ADS-B
Tue 11:12:42 AM 33.7920 -118.1210 314° West 143 165 500 -764 Descending FlightAware ADS-B
Tue 11:13:07 AM 33.8030 -118.1340 316° Northwest 132 152 200 -720 Descending FlightAware ADS-B
Tue 11:13:37 AM 33.8150 -118.1480 316° Northwest 123 142 -400 Descending FlightAware ADS-B

Login

Don't have an account? Register now (free) for customized features, flight alerts, and more!